Time;durP1;ratioP1;P1;durP2;ratioP2;P2;SDS_P1;SDS_P2;PMS_P1;PMS_P2;Temp;Humidity;BMP_temperature;BMP_pressure;BME280_temperature;BME280_humidity;BME280_pressure;Samples;Min_cycle;Max_cycle;Signal;HPM_P1;HPM_P2
2023/10/18 00:02:54;;;;;;;;;;;;;;;29.39;71.98;100995.09;5041040;28;66588;-40
2023/10/18 00:05:25;;;;;;;;;;;;;;;29.47;73.37;101004.88;5039658;28;70148;-41
2023/10/18 00:07:59;;;;;;;;;;;;;;;29.49;73.43;101009.03;5041920;28;66176;-39
2023/10/18 00:10:30;;;;;;;;;;;;;;;29.53;74.26;101004.03;5040376;28;70038;-37
2023/10/18 00:12:59;;;;;;;;;;;;;;;29.55;76.72;101002.78;5038683;28;67208;-40
2023/10/18 00:15:31;;;;;;;;;;;;;;;29.57;77.06;101005.28;5038708;28;69717;-41
2023/10/18 00:18:00;;;;;;;;;;;;;;;29.49;79.07;101008.19;5035475;28;66146;-40
2023/10/18 00:20:30;;;;;;;;;;;;;;;29.54;78.70;101016.53;5037782;28;69478;-41
2023/10/18 00:23:00;;;;;;;;;;;;;;;29.60;78.47;101021.09;5038310;28;66124;-38
2023/10/18 00:25:32;;;;;;;;;;;;;;;29.63;78.27;101018.00;5037710;28;69742;-39
2023/10/18 00:28:03;;;;;;;;;;;;;;;29.67;78.09;101015.69;5038048;28;67111;-40
2023/10/18 00:30:33;;;;;;;;;;;;;;;29.70;78.69;101020.69;5037727;28;71261;-41
2023/10/18 00:33:06;;;;;;;;;;;;;;;29.73;77.82;101031.09;5054897;28;66186;-39
2023/10/18 00:35:36;;;;;;;;;;;;;;;29.73;77.80;101026.53;5040418;28;69744;-40
2023/10/18 00:38:10;;;;;;;;;;;;;;;29.76;78.32;101031.50;5055107;28;65369;-39
2023/10/18 00:40:40;;;;;;;;;;;;;;;29.80;78.68;101031.91;5038738;28;69773;-39
2023/10/18 00:43:22;;;;;;;;;;;;;;;29.80;76.97;101032.75;5038236;28;66652;-38
2023/10/18 00:45:54;;;;;;;;;;;;;;;29.82;74.53;101027.97;5038863;28;70327;-40
2023/10/18 00:48:29;;;;;;;;;;;;;;;29.88;73.33;101039.00;5038052;28;66060;-38
2023/10/18 00:50:59;;;;;;;;;;;;;;;29.90;73.04;101034.22;5041819;28;69739;-38
2023/10/18 00:53:33;;;;;;;;;;;;;;;29.93;72.29;101036.50;5042546;28;66534;-37
2023/10/18 00:56:06;;;;;;;;;;;;;;;29.95;71.59;101039.78;5041950;28;70235;-39
2023/10/18 00:58:39;;;;;;;;;;;;;;;29.98;71.32;101044.81;5042053;28;65311;-39
2023/10/18 01:01:09;;;;;;;;;;;;;;;30.00;70.65;101042.69;5041706;28;69815;-39
2023/10/18 01:03:45;;;;;;;;;;;;;;;30.02;70.48;101046.03;5057739;28;65212;-38
2023/10/18 01:06:22;;;;;;;;;;;;;;;30.05;70.28;101045.63;5042026;28;70515;-38
2023/10/18 01:08:52;;;;;;;;;;;;;;;30.07;70.39;101051.66;5042839;28;66881;-39
2023/10/18 01:11:28;;;;;;;;;;;;;;;30.08;69.87;101056.00;5057116;28;69979;-39
2023/10/18 01:14:01;;;;;;;;;;;;;;;30.11;69.93;101062.88;5055259;28;67115;-41
2023/10/18 01:16:34;;;;;;;;;;;;;;;30.12;69.38;101073.50;5040208;28;70053;-38
2023/10/18 01:19:08;;;;;;;;;;;;;;;30.14;69.47;101082.22;5042388;28;67032;-40
2023/10/18 01:21:45;;;;;;;;;;;;;;;30.16;69.07;101077.44;5040765;28;69308;-38
2023/10/18 01:24:16;;;;;;;;;;;;;;;30.19;69.18;101084.31;5042811;28;66864;-38
2023/10/18 01:26:46;;;;;;;;;;;;;;;30.20;69.09;101086.81;5040339;28;70435;-38
2023/10/18 01:29:16;;;;;;;;;;;;;;;30.23;69.07;101091.81;5047806;28;66891;-39
2023/10/18 01:31:47;;;;;;;;;;;;;;;30.24;69.05;101090.78;5041359;28;70496;-39
2023/10/18 01:34:17;;;;;;;;;;;;;;;30.26;68.88;101099.53;5053175;28;67355;-38
2023/10/18 01:36:46;;;;;;;;;;;;;;;30.27;69.14;101098.47;5044037;28;69292;-39
2023/10/18 01:39:20;;;;;;;;;;;;;;;30.30;68.63;101107.22;5055374;28;66336;-38
2023/10/18 01:41:51;;;;;;;;;;;;;;;30.32;68.77;101124.09;5038383;28;69778;-38
2023/10/18 01:44:30;;;;;;;;;;;;;;;30.34;68.32;101124.69;5037944;28;65471;-39
2023/10/18 01:47:06;;;;;;;;;;;;;;;30.34;68.64;101119.25;5043650;28;70126;-39
2023/10/18 01:49:43;;;;;;;;;;;;;;;30.37;68.92;101121.53;5054754;28;65857;-39
2023/10/18 01:52:19;;;;;;;;;;;;;;;30.39;68.43;101135.72;5041692;28;71773;-40
2023/10/18 01:54:50;;;;;;;;;;;;;;;30.41;69.31;101139.88;5041615;28;65427;-38
2023/10/18 01:57:20;;;;;;;;;;;;;;;30.43;69.17;101135.09;5056775;28;70504;-40
2023/10/18 01:59:50;;;;;;;;;;;;;;;30.46;69.31;101144.66;5057112;28;66969;-39
2023/10/18 02:02:20;;;;;;;;;;;;;;;30.49;68.94;101155.06;5057480;28;70215;-39
2023/10/18 02:04:53;;;;;;;;;;;;;;;30.50;69.53;101149.41;5039141;28;66161;-38
2023/10/18 02:07:24;;;;;;;;;;;;;;;30.53;69.46;101153.59;5037257;28;70052;-40
2023/10/18 02:09:57;;;;;;;;;;;;;;;30.56;69.14;101155.88;5038425;28;66731;-38
2023/10/18 02:12:29;;;;;;;;;;;;;;;30.57;68.78;101144.00;5039037;28;69925;-39
2023/10/18 02:15:01;;;;;;;;;;;;;;;30.60;69.02;101145.47;5054899;28;66084;-39
2023/10/18 02:17:31;;;;;;;;;;;;;;;30.62;68.88;101144.22;5040570;28;69913;-39
2023/10/18 02:20:01;;;;;;;;;;;;;;;30.63;68.92;101140.44;5057025;28;66677;-39
2023/10/18 02:22:31;;;;;;;;;;;;;;;30.65;68.81;101138.38;5035350;28;68827;-39
2023/10/18 02:25:02;;;;;;;;;;;;;;;30.68;68.60;101135.22;5038390;28;65827;-41
2023/10/18 02:27:36;;;;;;;;;;;;;;;30.70;68.52;101135.84;5031843;28;69791;-39
2023/10/18 02:30:10;;;;;;;;;;;;;;;30.72;68.33;101128.31;5038682;28;66919;-39
2023/10/18 02:32:41;;;;;;;;;;;;;;;30.75;68.65;101120.84;5039403;28;69610;-41
2023/10/18 02:35:11;;;;;;;;;;;;;;;30.76;68.66;101117.06;5036500;28;67551;-42
2023/10/18 02:37:41;;;;;;;;;;;;;;;30.79;68.53;101116.66;5040545;28;70855;-41
2023/10/18 02:40:28;;;;;;;;;;;;;;;30.81;68.10;101131.66;5040412;28;66652;-39
2023/10/18 02:43:07;;;;;;;;;;;;;;;30.85;67.96;101121.25;5041419;28;70353;-38
2023/10/18 02:45:42;;;;;;;;;;;;;;;30.86;68.15;101118.31;5040964;28;65592;-41
2023/10/18 02:48:22;;;;;;;;;;;;;;;30.88;68.13;101116.22;5039958;28;70600;-39
2023/10/18 02:50:57;;;;;;;;;;;;;;;30.89;67.98;101117.88;5049395;28;65999;-39
2023/10/18 02:53:28;;;;;;;;;;;;;;;30.90;67.98;101119.56;5050890;28;69567;-41
2023/10/18 02:55:58;;;;;;;;;;;;;;;30.93;67.87;101112.88;5038780;28;66017;-38
2023/10/18 02:58:28;;;;;;;;;;;;;;;30.94;68.09;101109.94;5041073;28;70508;-39
2023/10/18 03:01:05;;;;;;;;;;;;;;;30.96;67.90;101104.31;5038043;28;67051;-39
2023/10/18 03:03:35;;;;;;;;;;;;;;;30.99;67.83;101105.78;5040545;28;70114;-39
2023/10/18 03:06:12;;;;;;;;;;;;;;;31.00;67.80;101102.84;5039489;28;67806;-38
2023/10/18 03:08:47;;;;;;;;;;;;;;;31.03;67.70;101096.97;5055892;28;69471;-39
2023/10/18 03:11:20;;;;;;;;;;;;;;;31.06;67.82;101101.13;5039749;28;66974;-41
2023/10/18 03:13:51;;;;;;;;;;;;;;;31.08;67.53;101102.59;5053595;28;69763;-40
2023/10/18 03:19:09;;;;;;;;;;;;;;;31.11;67.44;101099.44;5052546;28;70228;-42
2023/10/18 03:21:41;;;;;;;;;;;;;;;31.13;67.52;101099.22;5031475;28;67416;-42
2023/10/18 03:24:12;;;;;;;;;;;;;;;31.15;67.42;101100.69;5036996;28;70258;-38
2023/10/18 03:26:43;;;;;;;;;;;;;;;31.16;67.30;101096.91;5035856;28;65880;-40
2023/10/18 03:29:17;;;;;;;;;;;;;;;31.19;67.35;101095.66;5040525;28;69248;-39
2023/10/18 03:31:50;;;;;;;;;;;;;;;31.21;67.28;101087.31;5029357;28;66892;-39
2023/10/18 03:34:21;;;;;;;;;;;;;;;31.21;67.09;101088.16;5057565;28;69635;-39
2023/10/18 03:36:52;;;;;;;;;;;;;;;31.23;67.07;101090.63;5031832;28;66548;-39
2023/10/18 03:39:25;;;;;;;;;;;;;;;31.24;67.13;101076.03;5028935;28;69782;-40
2023/10/18 03:41:58;;;;;;;;;;;;;;;31.25;67.23;101077.69;5037013;28;66431;-39
2023/10/18 03:44:28;;;;;;;;;;;;;;;31.26;67.11;101079.34;5057246;28;69720;-39
2023/10/18 03:47:24;;;;;;;;;;;;;;;31.28;66.98;101071.81;5027185;28;66045;-39
2023/10/18 03:49:53;;;;;;;;;;;;;;;31.28;67.44;101067.22;5038705;28;69715;-39
2023/10/18 03:52:26;;;;;;;;;;;;;;;31.30;66.89;101058.91;5039754;28;66366;-39
2023/10/18 03:55:04;;;;;;;;;;;;;;;31.32;67.01;101052.22;5039272;28;70115;-39
2023/10/18 03:57:38;;;;;;;;;;;;;;;31.33;67.10;101042.19;5038804;28;66550;-39
2023/10/18 04:02:59;;;;;;;;;;;;;;;31.37;66.76;101021.75;5039195;28;65764;-42
2023/10/18 04:05:40;;;;;;;;;;;;;;;31.39;66.63;101025.06;5025619;28;70286;-40
2023/10/18 04:08:13;;;;;;;;;;;;;;;31.40;66.64;101015.91;5038759;28;65632;-40
2023/10/18 04:10:44;;;;;;;;;;;;;;;31.41;66.85;101014.84;5038525;28;70810;-39
2023/10/18 04:13:14;;;;;;;;;;;;;;;31.43;66.49;101004.63;5040956;28;67034;-39
2023/10/18 04:15:49;;;;;;;;;;;;;;;31.44;66.54;101002.72;5037828;28;70618;-39
2023/10/18 04:18:35;;;;;;;;;;;;;;;31.46;66.74;100998.75;5032601;28;65674;-39
2023/10/18 04:21:25;;;;;;;;;;;;;;;31.47;66.59;100994.97;5037795;28;70502;-39
2023/10/18 04:23:56;;;;;;;;;;;;;;;31.50;66.37;100999.97;5034870;28;65586;-39
2023/10/18 04:26:26;;;;;;;;;;;;;;;31.51;66.37;100990.78;5035650;28;70262;-41
2023/10/18 04:29:10;;;;;;;;;;;;;;;31.53;66.59;100988.66;5036328;28;65475;-40
2023/10/18 04:31:40;;;;;;;;;;;;;;;31.54;66.40;100990.34;5039042;28;69464;-40
2023/10/18 04:34:18;;;;;;;;;;;;;;;31.55;66.47;100981.16;5039338;28;66245;-39
2023/10/18 04:36:51;;;;;;;;;;;;;;;31.59;66.37;100976.09;5039782;28;69920;-38
2023/10/18 04:39:21;;;;;;;;;;;;;;;31.60;66.69;100973.19;5038484;28;66971;-38
2023/10/18 04:41:51;;;;;;;;;;;;;;;31.62;66.43;100970.22;5040030;28;69751;-39
2023/10/18 04:44:23;;;;;;;;;;;;;;;31.65;66.51;100958.09;5040563;28;66035;-40
2023/10/18 04:46:59;;;;;;;;;;;;;;;31.66;66.37;100959.78;5032077;28;70299;-39
2023/10/18 04:49:39;;;;;;;;;;;;;;;31.68;66.34;100960.38;5035976;28;66628;-39
2023/10/18 04:52:09;;;;;;;;;;;;;;;31.69;66.36;100954.72;5037506;28;70315;-38
2023/10/18 04:54:41;;;;;;;;;;;;;;;31.71;66.39;100957.22;5038904;28;65449;-39
2023/10/18 04:57:11;;;;;;;;;;;;;;;31.73;66.16;100946.97;5037744;28;69533;-39
2023/10/18 04:59:47;;;;;;;;;;;;;;;31.74;66.30;100930.50;5037669;28;66989;-39
2023/10/18 05:02:17;;;;;;;;;;;;;;;31.78;66.09;100920.00;5039333;28;70464;-38
2023/10/18 05:04:47;;;;;;;;;;;;;;;31.79;65.88;100910.84;5035687;28;66399;-39
2023/10/18 05:07:17;;;;;;;;;;;;;;;31.81;65.90;100908.69;5038688;28;69023;-39
2023/10/18 05:09:55;;;;;;;;;;;;;;;31.82;65.94;100904.94;5033206;28;66281;-39
2023/10/18 05:17:35;;;;;;;;;;;;;;;31.88;65.61;100901.34;5037008;28;70247;-40
2023/10/18 05:22:52;;;;;;;;;;;;;;;31.92;65.52;100890.88;5038710;28;69221;-40
2023/10/18 05:25:29;;;;;;;;;;;;;;;31.93;65.59;100890.66;5040886;28;65869;-40
2023/10/18 05:28:24;;;;;;;;;;;;;;;31.95;65.56;100883.09;5041263;28;69468;-41
2023/10/18 05:31:25;;;;;;;;;;;;;;;31.97;65.47;100875.56;5031944;28;67503;-41
2023/10/18 05:34:02;;;;;;;;;;;;;;;31.99;65.46;100872.66;5036314;28;69323;-42
2023/10/18 05:36:35;;;;;;;;;;;;;;;32.01;65.37;100870.50;5039562;28;66079;-41
2023/10/18 05:39:18;;;;;;;;;;;;;;;32.03;65.45;100865.69;5040723;28;70401;-42
2023/10/18 05:42:03;;;;;;;;;;;;;;;32.04;65.13;100857.34;5039575;28;66556;-40
2023/10/18 05:44:33;;;;;;;;;;;;;;;32.05;65.23;100844.59;5038939;28;69314;-41
2023/10/18 05:47:06;;;;;;;;;;;;;;;32.07;65.31;100844.34;5042186;28;66595;-39
2023/10/18 05:49:50;;;;;;;;;;;;;;;32.08;65.08;100843.31;5041609;28;70004;-40
2023/10/18 05:52:29;;;;;;;;;;;;;;;32.11;64.98;100837.41;5041486;28;66656;-40
2023/10/18 05:54:59;;;;;;;;;;;;;;;32.12;65.07;100822.78;5041253;28;70370;-42
2023/10/18 05:57:30;;;;;;;;;;;;;;;32.13;65.24;100822.56;5040050;28;66862;-42
2023/10/18 06:00:00;;;;;;;;;;;;;;;32.15;64.98;100814.19;5037764;28;69861;-41
2023/10/18 06:02:37;;;;;;;;;;;;;;;32.17;64.92;100806.63;5032809;28;65997;-40
2023/10/18 06:05:09;;;;;;;;;;;;;;;32.19;64.65;100807.25;5043020;28;70438;-40
2023/10/18 06:07:41;;;;;;;;;;;;;;;32.21;64.81;100797.00;5035399;28;66871;-39
2023/10/18 06:10:17;;;;;;;;;;;;;;;32.24;64.79;100788.38;5039816;28;69933;-41
2023/10/18 06:12:47;;;;;;;;;;;;;;;32.23;64.52;100792.13;5039080;28;67149;-40
2023/10/18 06:15:34;;;;;;;;;;;;;;;32.26;64.88;100781.66;5047165;28;70496;-40
2023/10/18 06:18:05;;;;;;;;;;;;;;;32.29;64.40;100783.09;5032495;28;66677;-40
2023/10/18 06:20:41;;;;;;;;;;;;;;;32.30;64.76;100782.03;5040699;28;69637;-41
2023/10/18 06:23:36;;;;;;;;;;;;;;;32.32;64.63;100779.91;5033201;28;66633;-41
2023/10/18 06:29:00;;;;;;;;;;;;;;;32.36;64.50;100766.69;5028078;28;65648;-41
2023/10/18 06:31:32;;;;;;;;;;;;;;;32.38;64.66;100773.53;5039905;28;70071;-41
2023/10/18 06:34:04;;;;;;;;;;;;;;;32.40;64.74;100763.28;5043505;28;65551;-42
2023/10/18 06:36:34;;;;;;;;;;;;;;;32.43;64.54;100754.66;5045547;28;69968;-39
2023/10/18 06:39:05;;;;;;;;;;;;;;;32.45;64.27;100749.81;5033699;28;66526;-40
2023/10/18 06:41:36;;;;;;;;;;;;;;;32.50;64.38;100738.28;5038409;28;69788;-40
2023/10/18 06:44:11;;;;;;;;;;;;;;;32.53;64.17;100737.00;5027214;28;66251;-41
2023/10/18 06:46:44;;;;;;;;;;;;;;;32.55;64.49;100734.88;5043084;28;71051;-40
2023/10/18 06:49:14;;;;;;;;;;;;;;;32.57;64.08;100733.59;5047886;28;66836;-40
2023/10/18 06:51:50;;;;;;;;;;;;;;;32.59;64.42;100727.91;5044439;28;69850;-41
2023/10/18 06:54:32;;;;;;;;;;;;;;;32.62;64.10;100727.44;5048085;28;66217;-41
2023/10/18 06:57:27;;;;;;;;;;;;;;;32.64;64.04;100717.16;5036730;28;70298;-42
2023/10/18 06:59:54;;;;;;;;;;;;;;;32.67;64.15;100719.41;5036987;28;66138;-43
2023/10/18 07:02:27;;;;;;;;;;;;;;;32.69;64.01;100714.56;5031936;28;70678;-48
2023/10/18 07:04:57;;;;;;;;;;;;;;;32.72;64.13;100711.38;5040765;28;67205;-41
2023/10/18 07:07:26;;;;;;;;;;;;;;;32.76;63.97;100698.13;5040376;28;70291;-41
2023/10/18 07:09:59;;;;;;;;;;;;;;;32.77;63.47;100695.19;5041609;28;65685;-40
2023/10/18 07:12:44;;;;;;;;;;;;;;;32.81;64.05;100696.34;5052689;28;70407;-39
2023/10/18 07:15:16;;;;;;;;;;;;;;;32.84;63.79;100700.50;5039846;28;65929;-41
2023/10/18 07:17:46;;;;;;;;;;;;;;;32.87;63.71;100703.56;5039957;28;69494;-40
2023/10/18 07:20:16;;;;;;;;;;;;;;;32.92;63.86;100697.41;5041686;28;66097;-40
2023/10/18 07:22:46;;;;;;;;;;;;;;;32.94;63.83;100696.13;5040818;28;70918;-39
2023/10/18 07:25:26;;;;;;;;;;;;;;;32.99;63.25;100692.69;5040877;28;66457;-40
2023/10/18 07:28:01;;;;;;;;;;;;;;;33.01;63.30;100682.41;5041468;28;70415;-40
2023/10/18 07:30:44;;;;;;;;;;;;;;;33.05;63.00;100675.44;5027280;28;66659;-40
2023/10/18 07:33:15;;;;;;;;;;;;;;;33.06;63.15;100668.94;5039646;28;70021;-42
2023/10/18 07:35:45;;;;;;;;;;;;;;;33.10;62.82;100672.03;5041134;28;66570;-41
2023/10/18 07:38:25;;;;;;;;;;;;;;;33.15;62.86;100677.53;5040367;28;69882;-40
2023/10/18 07:40:56;;;;;;;;;;;;;;;33.19;62.90;100676.00;5041055;28;67078;-41
2023/10/18 07:43:26;;;;;;;;;;;;;;;33.19;62.71;100667.84;5038389;28;70051;-41
2023/10/18 07:45:57;;;;;;;;;;;;;;;33.24;62.48;100678.84;5037583;28;66375;-41
2023/10/18 07:48:27;;;;;;;;;;;;;;;33.27;62.78;100672.09;5036723;28;70489;-40
2023/10/18 07:50:58;;;;;;;;;;;;;;;33.29;62.22;100680.81;5039379;28;66642;-40
2023/10/18 07:53:28;;;;;;;;;;;;;;;33.31;62.42;100687.66;5037045;28;69440;-39
2023/10/18 07:56:00;;;;;;;;;;;;;;;33.34;62.32;100681.72;5039942;28;66933;-40
2023/10/18 07:58:32;;;;;;;;;;;;;;;33.37;62.17;100692.13;5038305;28;71079;-42
2023/10/18 08:03:32;;;;;;;;;;;;;;;33.41;62.30;100684.31;5037321;28;69739;-40
2023/10/18 08:06:06;;;;;;;;;;;;;;;33.46;61.46;100686.28;5037833;28;67195;-40
2023/10/18 08:08:36;;;;;;;;;;;;;;;33.46;61.62;100679.00;5027322;28;70409;-41
2023/10/18 08:11:11;;;;;;;;;;;;;;;33.48;61.93;100686.88;5038870;28;67398;-40
2023/10/18 08:13:47;;;;;;;;;;;;;;;33.51;61.41;100683.69;5038806;28;70307;-41
2023/10/18 08:16:20;;;;;;;;;;;;;;;33.51;61.41;100679.06;5039286;28;66295;-40
2023/10/18 08:18:52;;;;;;;;;;;;;;;33.55;61.64;100687.59;5037593;28;70630;-40
2023/10/18 08:21:29;;;;;;;;;;;;;;;33.57;61.56;100690.88;5038502;28;66976;-40
2023/10/18 08:24:07;;;;;;;;;;;;;;;33.56;61.45;100692.78;5035179;28;70013;-42
2023/10/18 08:26:51;;;;;;;;;;;;;;;33.61;61.48;100704.84;5036106;28;67057;-41
2023/10/18 08:29:21;;;;;;;;;;;;;;;33.62;61.45;100703.78;5035282;28;69176;-39
2023/10/18 08:32:04;;;;;;;;;;;;;;;33.65;61.11;100701.38;5037435;28;66971;-40
2023/10/18 08:34:34;;;;;;;;;;;;;;;33.68;61.23;100695.44;5037974;28;69798;-40
2023/10/18 08:37:05;;;;;;;;;;;;;;;33.69;60.78;100691.69;5039825;28;66736;-40
2023/10/18 08:39:39;;;;;;;;;;;;;;;33.71;61.29;100696.84;5040398;28;69812;-40
2023/10/18 08:42:14;;;;;;;;;;;;;;;33.71;60.69;100684.09;5036564;28;65947;-42
2023/10/18 08:44:45;;;;;;;;;;;;;;;33.74;60.67;100694.50;5052392;28;69157;-40
2023/10/18 08:47:15;;;;;;;;;;;;;;;33.76;60.90;100696.97;5036004;28;66582;-41
2023/10/18 08:49:53;;;;;;;;;;;;;;;33.77;61.17;100698.63;5049836;28;70071;-41
2023/10/18 08:52:24;;;;;;;;;;;;;;;33.79;61.13;100696.47;5036483;28;67124;-41
2023/10/18 08:54:55;;;;;;;;;;;;;;;33.81;61.33;100699.78;5040738;28;69742;-41
2023/10/18 08:57:35;;;;;;;;;;;;;;;33.83;61.26;100696.81;5039058;28;67166;-40
2023/10/18 09:02:57;;;;;;;;;;;;;;;33.85;60.91;100710.97;5051608;28;66990;-41
2023/10/18 09:05:27;;;;;;;;;;;;;;;33.87;60.82;100698.78;5041566;28;71711;-40
2023/10/18 09:08:03;;;;;;;;;;;;;;;33.88;60.95;100710.50;5040534;28;66214;-40
2023/10/18 09:10:42;;;;;;;;;;;;;;;33.90;61.07;100713.81;5042706;28;69846;-39
2023/10/18 09:18:34;;;;;;;;;;;;;;;33.94;61.53;100714.97;5043975;28;66221;-41
2023/10/18 09:21:09;;;;;;;;;;;;;;;33.94;61.49;100712.25;5044123;28;69721;-41
2023/10/18 09:23:40;;;;;;;;;;;;;;;33.96;61.05;100715.53;5042800;28;66364;-40
2023/10/18 09:26:19;;;;;;;;;;;;;;;33.98;61.01;100718.84;5042404;28;69106;-40
2023/10/18 09:28:48;;;;;;;;;;;;;;;33.99;61.50;100720.47;5042611;28;66198;-40
2023/10/18 09:31:21;;;;;;;;;;;;;;;33.99;61.65;100723.22;5044181;28;70417;-40
2023/10/18 09:33:52;;;;;;;;;;;;;;;33.99;62.29;100734.94;5039151;28;65975;-39
2023/10/18 09:36:27;;;;;;;;;;;;;;;34.01;62.26;100734.69;5042853;28;70041;-40
2023/10/18 09:38:59;;;;;;;;;;;;;;;34.01;61.99;100724.63;5040945;28;67059;-40
2023/10/18 09:41:31;;;;;;;;;;;;;;;33.99;62.86;100723.22;5042274;28;70787;-40
2023/10/18 09:44:03;;;;;;;;;;;;;;;34.00;62.52;100730.31;5039877;28;65526;-40
2023/10/18 09:46:36;;;;;;;;;;;;;;;34.00;62.44;100742.03;5041721;28;69837;-40
2023/10/18 09:49:09;;;;;;;;;;;;;;;34.00;62.76;100742.03;5042207;28;66847;-40
2023/10/18 09:51:44;;;;;;;;;;;;;;;33.99;62.57;100740.38;5041035;28;70702;-40
2023/10/18 09:54:21;;;;;;;;;;;;;;;33.98;63.05;100744.16;5043066;28;66514;-40
2023/10/18 09:56:54;;;;;;;;;;;;;;;33.97;62.81;100749.88;5040634;28;70263;-40
2023/10/18 09:59:30;;;;;;;;;;;;;;;33.98;63.16;100740.63;5040902;28;65894;-39
2023/10/18 10:02:08;;;;;;;;;;;;;;;33.94;62.85;100731.31;5041008;28;69923;-40
2023/10/18 10:04:39;;;;;;;;;;;;;;;33.94;63.27;100731.31;5041659;28;65496;-40
2023/10/18 10:07:36;;;;;;;;;;;;;;;33.94;62.83;100742.19;5041246;28;69533;-40
2023/10/18 10:10:10;;;;;;;;;;;;;;;33.92;63.35;100755.22;5040900;28;66778;-39
2023/10/18 10:12:42;;;;;;;;;;;;;;;33.91;63.50;100756.28;5039543;28;70291;-40
2023/10/18 10:15:17;;;;;;;;;;;;;;;33.91;63.59;100764.44;5041081;28;66014;-40
2023/10/18 10:17:56;;;;;;;;;;;;;;;33.71;64.14;100765.72;5038557;28;69338;-42
2023/10/18 10:20:31;;;;;;;;;;;;;;;33.34;66.04;100774.16;5050308;28;66228;-40
2023/10/18 10:23:04;;;;;;;;;;;;;;;33.19;66.46;100795.59;5039934;28;69535;-41
2023/10/18 10:25:34;;;;;;;;;;;;;;;33.08;67.16;100799.16;5043532;28;67054;-40
2023/10/18 10:29:09;;;;;;;;;;;;;;;33.02;67.63;100817.25;5039930;28;70371;-41
2023/10/18 10:31:46;;;;;;;;;;;;;;;32.96;68.13;100828.19;5043376;28;66695;-41
2023/10/18 10:34:24;;;;;;;;;;;;;;;32.94;68.33;100834.69;5046342;28;70333;-44
2023/10/18 10:37:06;;;;;;;;;;;;;;;32.89;68.62;100829.13;5047459;28;66492;-41
2023/10/18 10:39:44;;;;;;;;;;;;;;;32.87;68.64;100808.69;5050547;28;68727;-41
2023/10/18 10:42:41;;;;;;;;;;;;;;;32.88;68.90;100810.34;5050998;28;65984;-40
2023/10/18 10:45:57;;;;;;;;;;;;;;;32.86;68.70;100816.00;5048519;28;70245;-42
2023/10/18 10:48:16;;;;;;;;;;;;;;;32.80;69.29;100830.53;5054618;28;66420;-42
2023/10/18 10:50:57;;;;;;;;;;;;;;;32.80;69.28;100827.81;5042619;28;69848;-42
2023/10/18 10:53:30;;;;;;;;;;;;;;;32.77;69.62;100836.44;5049324;28;65373;-41
2023/10/18 10:56:17;;;;;;;;;;;;;;;32.76;70.35;100829.34;5041248;28;69385;-43
2023/10/18 10:59:03;;;;;;;;;;;;;;;32.75;70.66;100826.88;5034451;28;67061;-40
2023/10/18 11:01:39;;;;;;;;;;;;;;;32.74;70.95;100826.06;5031623;28;70211;-41
2023/10/18 11:04:24;;;;;;;;;;;;;;;32.74;71.09;100836.91;5039272;28;67857;-41
2023/10/18 11:07:03;;;;;;;;;;;;;;;32.74;71.06;100847.78;5041888;28;69808;-42
2023/10/18 11:09:34;;;;;;;;;;;;;;;32.72;71.48;100858.03;5041716;28;67106;-42
2023/10/18 11:12:20;;;;;;;;;;;;;;;32.71;71.66;100878.13;5039656;28;70539;-41
2023/10/18 11:14:52;;;;;;;;;;;;;;;32.69;71.80;100902.78;5055712;28;66726;-42
2023/10/18 11:17:25;;;;;;;;;;;;;;;32.71;72.33;100929.75;5038593;28;70629;-44
2023/10/18 11:19:55;;;;;;;;;;;;;;;32.70;71.96;100944.38;5041542;28;66068;-41
2023/10/18 11:22:29;;;;;;;;;;;;;;;32.66;72.50;100952.16;5040226;28;69608;-41
2023/10/18 11:25:00;;;;;;;;;;;;;;;32.66;72.58;100938.56;5038155;28;66729;-43
2023/10/18 11:27:37;;;;;;;;;;;;;;;32.66;72.71;100921.47;5053170;28;69985;-41
2023/10/18 11:30:18;;;;;;;;;;;;;;;32.67;73.04;100912.22;5036248;28;65527;-42
2023/10/18 11:32:50;;;;;;;;;;;;;;;32.86;72.14;100913.00;5038085;28;69714;-42
2023/10/18 11:35:42;;;;;;;;;;;;;;;32.98;71.13;100902.97;5038821;28;65990;-42
2023/10/18 11:38:13;;;;;;;;;;;;;;;33.07;70.00;100892.59;5054381;28;69562;-41
2023/10/18 11:40:51;;;;;;;;;;;;;;;33.12;69.69;100899.00;5039862;28;66011;-42
2023/10/18 11:43:27;;;;;;;;;;;;;;;33.16;69.29;100918.41;5037647;28;68512;-41
2023/10/18 11:46:07;;;;;;;;;;;;;;;33.19;69.23;100931.50;5038046;28;66677;-41
2023/10/18 11:48:37;;;;;;;;;;;;;;;33.22;69.09;100936.47;5037186;28;70124;-41
2023/10/18 11:51:08;;;;;;;;;;;;;;;33.22;69.01;100933.75;5037355;28;67089;-40
2023/10/18 11:53:38;;;;;;;;;;;;;;;33.24;68.83;100928.06;5037977;28;69542;-42
2023/10/18 11:56:11;;;;;;;;;;;;;;;33.24;69.17;100923.47;5036808;28;66783;-40
2023/10/18 11:58:58;;;;;;;;;;;;;;;33.24;68.75;100923.47;5043951;28;70888;-41
2023/10/18 12:01:33;;;;;;;;;;;;;;;33.24;68.71;100934.34;5052977;28;64108;-41
2023/10/18 12:04:06;;;;;;;;;;;;;;;33.23;68.62;100940.84;5035350;28;70068;-40
2023/10/18 12:06:36;;;;;;;;;;;;;;;33.23;68.41;100949.00;5035945;28;65932;-41
2023/10/18 12:11:42;;;;;;;;;;;;;;;33.22;68.30;100966.38;5038159;28;65972;-41
2023/10/18 12:14:11;;;;;;;;;;;;;;;33.21;68.43;100978.31;5036810;28;69604;-41
2023/10/18 12:16:41;;;;;;;;;;;;;;;33.20;68.22;100982.09;5039824;28;66003;-42
2023/10/18 12:19:13;;;;;;;;;;;;;;;33.17;68.33;100977.13;5039742;28;70040;-41
2023/10/18 12:21:48;;;;;;;;;;;;;;;33.14;68.17;100972.16;5040363;28;65803;-41
2023/10/18 12:24:20;;;;;;;;;;;;;;;33.13;68.55;100984.09;5043360;28;70355;-41
2023/10/18 12:26:54;;;;;;;;;;;;;;;33.10;68.34;100992.72;5043377;28;64400;-42
2023/10/18 12:29:26;;;;;;;;;;;;;;;33.07;69.78;100988.56;5051333;28;70192;-41
2023/10/18 12:32:19;;;;;;;;;;;;;;;32.87;71.34;101005.13;5051498;28;65845;-42
2023/10/18 12:34:56;;;;;;;;;;;;;;;32.65;72.82;101012.13;5044913;28;69360;-43
2023/10/18 12:37:32;;;;;;;;;;;;;;;32.62;73.51;101012.59;5049918;28;66273;-41
2023/10/18 12:40:14;;;;;;;;;;;;;;;32.55;73.92;101025.44;5063045;28;70690;-44
2023/10/18 12:42:46;;;;;;;;;;;;;;;32.46;74.50;101023.03;5045180;28;67027;-41
2023/10/18 12:45:18;;;;;;;;;;;;;;;32.43;74.74;101028.88;5046544;28;69648;-40
2023/10/18 12:47:51;;;;;;;;;;;;;;;32.40;75.30;101026.63;5047248;28;66812;-42
2023/10/18 12:50:26;;;;;;;;;;;;;;;32.36;75.71;101030.84;5035432;28;69717;-46
2023/10/18 12:53:16;;;;;;;;;;;;;;;32.33;75.45;101034.00;5046353;28;65584;-43
2023/10/18 12:55:46;;;;;;;;;;;;;;;32.30;75.17;101042.59;5046298;28;70286;-42
2023/10/18 12:58:18;;;;;;;;;;;;;;;32.29;74.74;101038.25;5046784;28;65985;-41
2023/10/18 13:00:53;;;;;;;;;;;;;;;32.35;74.32;101040.06;5046887;28;70134;-42
2023/10/18 13:03:33;;;;;;;;;;;;;;;32.47;73.33;101038.25;5046699;28;66134;-43
2023/10/18 13:06:15;;;;;;;;;;;;;;;32.57;72.25;101036.88;5046803;28;69328;-41
2023/10/18 13:09:15;;;;;;;;;;;;;;;32.61;71.41;101033.50;5045955;28;65596;-41
2023/10/18 13:14:29;;;;;;;;;;;;;;;32.65;71.46;101025.69;5035882;28;65935;-42
2023/10/18 13:17:03;;;;;;;;;;;;;;;32.66;70.77;101027.38;5046547;28;70766;-43
2023/10/18 13:19:33;;;;;;;;;;;;;;;32.66;70.37;101021.94;5049005;28;66892;-43
2023/10/18 13:22:12;;;;;;;;;;;;;;;32.67;70.27;101021.69;5049006;28;70742;-44
2023/10/18 13:24:42;;;;;;;;;;;;;;;32.67;70.27;101020.88;5048295;28;66532;-42
2023/10/18 13:27:18;;;;;;;;;;;;;;;32.68;70.12;101017.09;5046873;28;69935;-43
2023/10/18 13:32:41;;;;;;;;;;;;;;;32.67;69.99;101027.13;5059042;28;70564;-42
2023/10/18 13:35:14;;;;;;;;;;;;;;;32.67;70.06;101029.03;5047514;28;65507;-44
2023/10/18 13:37:48;;;;;;;;;;;;;;;32.65;70.74;101028.41;5048664;28;69808;-45
2023/10/18 13:40:21;;;;;;;;;;;;;;;32.63;71.06;101028.66;5059288;28;66239;-43
2023/10/18 13:42:50;;;;;;;;;;;;;;;32.65;71.51;101039.28;5043642;28;70479;-44
2023/10/18 13:45:33;;;;;;;;;;;;;;;32.60;72.05;101036.44;5044351;28;65789;-42
2023/10/18 13:48:03;;;;;;;;;;;;;;;32.61;71.68;101043.53;5042850;28;70629;-41
2023/10/18 13:50:37;;;;;;;;;;;;;;;32.61;71.41;101038.09;5043640;28;65800;-43